Edmonds, WA

3:13 PM PDT on August 20, 2014 (GMT -0700)
North Ridge/Echo Lake | Change Station
CLOSE
Current Station
Personal Weather Station
Location: Shoreline, WA
Elevation: 373 ft
Nearby Weather Stations

Elev 373 ft 47.77 °N, 122.32 °W | Updated 3 seconds ago

Clear
Clear
68.4 °F
Feels Like 68.4 °F
N
3.5
Wind Variable Wind from NE
Gusts 0.0 mph

Today
High -- | Low -- °F
--% Chance of Precip.
Yesterday
High -- | Low -- °F
Precip. -- in
6:11 AM 8:12 PM
Waning Crescent, 19% visible
Pressure 29.98 in
Visibility 10.0 miles
Clouds Clear
Dew Point 44 °F
Humidity 41%
Rainfall 0.00 in
Snow Depth Not available.
UV 7 out of 12
Pollen 2.70 out of 12
Air Quality Not available.
Flu Activity Not available.
METAR KPAE 202153Z 24012KT 10SM CLR 19/12 A2998 RMK AO2 SLP150 T01940117

More Conditions Fewer Conditions

Pressure 29.98 in
Visibility 10.0 miles
Clouds Clear
Dew Point 44 °F
Humidity 41%
Rainfall 0.00 in
Snow Depth Not available.
UV 7 out of 12
Pollen 2.70 out of 12
Air Quality Not available.
Flu Activity Not available.
METAR KPAE 202153Z 24012KT 10SM CLR 19/12 A2998 RMK AO2 SLP150 T01940117

More Conditions Fewer Conditions

10-Day Weather Forecast

Almanac

Astronomy

Aug. 20, 2014 Rise Set
Actual Time 6:11 AM PDT 8:12 PM PDT
Civil Twilight 5:38 AM PDT 8:45 PM PDT
Nautical Twilight 4:56 AM PDT 9:26 PM PDT
Astronomical Twilight 4:10 AM PDT 10:12 PM PDT
Moon 1:47 AM PDT 5:09 PM PDT
Length of Visible Light 15h 07m
Length of Day
14h 01m
Tomorrow will be 3m 12s shorter.
Waning Crescent, 19% of the Moon is Illuminated
Today
Waning Crescent
Aug 25
New
Sep 2
First Quarter
Sep 8
Full
Sep 15
Last Quarter

Today's Extremes

State Highs State Lows

Community

WunderPhotos

Upload Photos

1,745,773 photos uploaded!

Nearby

Air Quality

  Air Quality AQ Index Pollutant
Wednesday Good
OZONE
Wednesday Good
PM2.5
Thursday Good
OZONE
Thursday Good
PM2.5
Friday Good
OZONE
Friday Good
PM2.5
Saturday Good
OZONE
Saturday Good
PM2.5

Snow Depth

Station Depth Elevation
Skookum Creek 0 in 3920 ft
Dungeness 4 in 4100 ft
Olallie Meadows 2 in 3700 ft
Meadows Pass 0 in 3500 ft
Burnt Mountain 1 in 4200 ft

Earthquake Activity

City Distance Mag. Time & Date
No recent earthquake activity has been reported nearby.
Minimum magnitude displayed is 2.5.

Coastal Water Temperatures

Place Temperature
Port Townsend, WA 54.0 °F
Seattle, WA 55.9 °F
Friday Harbor, WA 53.1 °F
Tacoma, WA 55.9 °F

Nearby Weather Stations